createdAt,value
2022-08-25T00:01:04.372Z,74.0
2022-08-25T00:03:38.582Z,74.0
2022-08-25T00:06:10.430Z,74.0
2022-08-25T00:08:41.037Z,74.0
2022-08-25T00:11:13.867Z,74.0
2022-08-25T00:13:44.471Z,74.0
2022-08-25T00:16:25.170Z,74.0
2022-08-25T00:18:55.791Z,74.0
2022-08-25T00:23:56.573Z,74.0
2022-08-25T00:26:27.146Z,75.0
2022-08-25T00:29:01.084Z,75.0
2022-08-25T00:31:37.635Z,75.0
2022-08-25T00:34:09.695Z,75.0
2022-08-25T00:36:40.300Z,75.0
2022-08-25T00:39:10.897Z,75.0
2022-08-25T00:41:41.661Z,75.0
2022-08-25T00:44:12.271Z,75.0
2022-08-25T00:46:52.927Z,75.0
2022-08-25T00:49:35.014Z,75.0
2022-08-25T00:51:55.597Z,75.0
2022-08-25T00:54:26.262Z,75.0
2022-08-25T00:56:56.888Z,75.0
2022-08-25T00:59:27.493Z,74.0
2022-08-25T01:04:38.236Z,74.0
2022-08-25T01:07:10.247Z,74.0
2022-08-25T01:09:37.958Z,74.0
2022-08-25T01:12:08.607Z,74.0
2022-08-25T01:14:49.167Z,74.0
2022-08-25T01:17:19.749Z,74.0
2022-08-25T01:19:50.356Z,74.0
2022-08-25T01:22:20.940Z,74.0
2022-08-25T01:24:51.559Z,74.0
2022-08-25T01:27:22.133Z,74.0
2022-08-25T01:30:02.747Z,74.0
2022-08-25T01:32:33.377Z,74.0
2022-08-25T01:35:03.954Z,74.0
2022-08-25T01:37:34.559Z,74.0
2022-08-25T01:40:05.333Z,74.0
2022-08-25T01:45:16.235Z,74.0
2022-08-25T01:47:49.314Z,74.0
2022-08-25T01:50:19.954Z,75.0
2022-08-25T01:52:50.544Z,75.0
2022-08-25T01:55:21.159Z,75.0
2022-08-25T01:58:02.098Z,75.0
2022-08-25T02:00:32.704Z,75.0
2022-08-25T02:03:05.731Z,75.0
2022-08-25T02:05:38.354Z,75.0
2022-08-25T02:08:09.245Z,76.0
2022-08-25T02:10:39.851Z,76.0
2022-08-25T02:13:20.590Z,76.0
2022-08-25T02:15:47.301Z,76.0
2022-08-25T02:18:17.888Z,76.0
2022-08-25T02:20:48.515Z,76.0
2022-08-25T02:25:49.200Z,76.0
2022-08-25T02:28:29.808Z,76.0
2022-08-25T02:31:01.478Z,76.0
2022-08-25T02:33:32.418Z,76.0
2022-08-25T02:36:03.019Z,76.0
2022-08-25T02:38:33.604Z,76.0
2022-08-25T02:41:04.210Z,76.0
2022-08-25T02:43:44.836Z,76.0
2022-08-25T02:48:45.772Z,76.0
2022-08-25T02:51:16.352Z,76.0
2022-08-25T02:53:46.976Z,76.0
2022-08-25T02:56:17.589Z,76.0
2022-08-25T02:58:58.201Z,77.0
2022-08-25T03:01:29.172Z,77.0
2022-08-25T03:06:30.090Z,77.0
2022-08-25T03:09:00.709Z,77.0
2022-08-25T03:11:41.290Z,77.0
2022-08-25T03:14:11.889Z,77.0
2022-08-25T03:16:43.160Z,77.0
2022-08-25T03:19:17.053Z,77.0
2022-08-25T03:21:47.678Z,77.0
2022-08-25T03:24:18.248Z,77.0
2022-08-25T03:26:58.839Z,77.0
2022-08-25T03:29:29.417Z,77.0
2022-08-25T03:32:00.269Z,77.0
2022-08-25T03:34:31.285Z,77.0
2022-08-25T03:37:01.842Z,77.0
2022-08-25T03:39:32.444Z,77.0
2022-08-25T03:42:13.026Z,77.0
2022-08-25T03:47:13.722Z,78.0
2022-08-25T03:49:44.906Z,78.0
2022-08-25T03:52:15.496Z,78.0
2022-08-25T03:54:56.109Z,78.0
2022-08-25T03:57:26.716Z,78.0
2022-08-25T03:59:57.306Z,78.0
2022-08-25T04:02:28.017Z,78.0
2022-08-25T04:04:58.782Z,78.0
2022-08-25T04:07:29.397Z,78.0
2022-08-25T04:10:10.005Z,78.0
2022-08-25T04:12:41.543Z,78.0
2022-08-25T04:15:12.113Z,78.0
2022-08-25T04:17:42.727Z,78.0
2022-08-25T04:20:14.461Z,78.0
2022-08-25T04:22:47.079Z,78.0
2022-08-25T04:27:57.861Z,78.0
2022-08-25T04:30:28.473Z,78.0
2022-08-25T04:32:59.114Z,78.0
2022-08-25T04:35:29.719Z,78.0
2022-08-25T04:38:01.343Z,78.0
2022-08-25T04:40:42.092Z,78.0
2022-08-25T04:43:12.686Z,78.0
2022-08-25T04:45:43.413Z,78.0
2022-08-25T04:48:14.135Z,78.0
2022-08-25T04:50:44.718Z,78.0
2022-08-25T04:53:25.347Z,78.0
2022-08-25T04:56:00.624Z,78.0
2022-08-25T04:58:26.634Z,78.0
2022-08-25T05:00:57.391Z,78.0
2022-08-25T05:03:28.038Z,78.0
2022-08-25T05:08:38.807Z,78.0
2022-08-25T05:11:09.400Z,78.0
2022-08-25T05:13:45.441Z,78.0
2022-08-25T05:16:13.316Z,78.0
2022-08-25T05:18:44.042Z,78.0
2022-08-25T05:21:14.636Z,78.0
2022-08-25T05:23:55.251Z,78.0
2022-08-25T05:26:30.071Z,78.0
2022-08-25T05:28:50.639Z,78.0
2022-08-25T05:31:21.347Z,78.0
2022-08-25T05:33:52.100Z,77.0
2022-08-25T05:36:22.698Z,77.0
2022-08-25T05:39:13.321Z,77.0
2022-08-25T05:41:37.337Z,76.0
2022-08-25T05:44:07.923Z,76.0
2022-08-25T05:49:11.952Z,75.0
2022-08-25T05:51:52.540Z,74.0
2022-08-25T05:54:23.148Z,73.0
2022-08-25T05:56:53.752Z,73.0
2022-08-25T05:59:24.347Z,71.0
2022-08-25T06:01:56.453Z,71.0
2022-08-25T06:04:27.035Z,70.0
2022-08-25T06:07:11.589Z,69.0
2022-08-25T06:09:42.217Z,68.0
2022-08-25T06:12:12.805Z,67.0
2022-08-25T06:14:43.400Z,66.0
2022-08-25T06:17:13.966Z,66.0
2022-08-25T06:19:47.228Z,66.0
2022-08-25T06:22:17.842Z,66.0
2022-08-25T06:24:48.444Z,66.0
2022-08-25T06:29:53.379Z,65.0
2022-08-25T06:32:28.385Z,65.0
2022-08-25T06:34:58.973Z,65.0
2022-08-25T06:37:39.575Z,64.0
2022-08-25T06:40:10.329Z,65.0
2022-08-25T06:42:41.102Z,64.0
2022-08-25T06:45:11.705Z,64.0
2022-08-25T06:47:42.324Z,64.0
2022-08-25T06:50:22.944Z,64.0
2022-08-25T06:52:53.532Z,64.0
2022-08-25T06:55:24.159Z,63.0
2022-08-25T06:57:55.072Z,63.0
2022-08-25T07:00:22.469Z,63.0
2022-08-25T07:02:51.390Z,63.0
2022-08-25T07:05:44.155Z,62.0
2022-08-25T07:10:35.722Z,62.0
2022-08-25T07:13:08.520Z,62.0
2022-08-25T07:15:39.081Z,62.0
2022-08-25T07:18:10.042Z,62.0
2022-08-25T07:20:50.697Z,62.0
2022-08-25T07:23:21.313Z,62.0
2022-08-25T07:25:51.920Z,61.0
2022-08-25T07:28:21.987Z,61.0
2022-08-25T07:30:52.582Z,61.0
2022-08-25T07:33:25.511Z,61.0
2022-08-25T07:36:07.273Z,61.0
2022-08-25T07:38:33.588Z,61.0
2022-08-25T07:41:08.074Z,61.0
2022-08-25T07:43:38.706Z,61.0
2022-08-25T07:46:10.560Z,61.0
2022-08-25T07:51:21.378Z,60.0
2022-08-25T07:53:53.134Z,60.0
2022-08-25T07:56:24.186Z,60.0
2022-08-25T07:58:55.395Z,60.0
2022-08-25T08:01:16.312Z,60.0
2022-08-25T08:04:11.739Z,60.0
2022-08-25T08:06:32.365Z,61.0
2022-08-25T08:09:08.025Z,61.0
2022-08-25T08:11:41.491Z,61.0
2022-08-25T08:14:04.930Z,61.0
2022-08-25T08:16:38.102Z,61.0
2022-08-25T08:19:22.978Z,61.0
2022-08-25T08:21:43.880Z,61.0
2022-08-25T08:24:43.992Z,61.0
2022-08-25T08:27:08.259Z,62.0
2022-08-25T08:31:49.576Z,62.0
2022-08-25T08:34:34.995Z,61.0
2022-08-25T08:37:05.678Z,61.0
2022-08-25T08:39:33.517Z,61.0
2022-08-25T08:42:22.094Z,60.0
2022-08-25T08:44:32.666Z,60.0
2022-08-25T08:47:13.254Z,60.0
2022-08-25T08:49:43.854Z,60.0
2022-08-25T08:52:14.473Z,60.0
2022-08-25T08:54:46.411Z,60.0
2022-08-25T08:57:17.334Z,60.0
2022-08-25T08:59:48.614Z,60.0
2022-08-25T09:03:00.220Z,60.0
2022-08-25T09:05:02.410Z,60.0
2022-08-25T09:07:35.076Z,60.0
2022-08-25T09:12:28.808Z,60.0
2022-08-25T09:15:12.175Z,61.0
2022-08-25T09:17:44.337Z,60.0
2022-08-25T09:20:18.123Z,60.0
2022-08-25T09:22:46.714Z,60.0
2022-08-25T09:25:25.682Z,60.0
2022-08-25T09:27:44.448Z,60.0
2022-08-25T09:30:15.797Z,60.0
2022-08-25T09:33:02.551Z,60.0
2022-08-25T09:35:31.424Z,60.0
2022-08-25T09:38:02.006Z,60.0
2022-08-25T09:40:33.999Z,60.0
2022-08-25T09:43:08.806Z,60.0
2022-08-25T09:45:39.705Z,60.0
2022-08-25T09:48:14.147Z,60.0
2022-08-25T09:53:27.267Z,60.0
2022-08-25T09:55:42.820Z,60.0
2022-08-25T09:58:22.195Z,60.0
2022-08-25T10:00:52.906Z,60.0
2022-08-25T10:03:25.601Z,60.0
2022-08-25T10:05:57.256Z,59.0
2022-08-25T10:08:34.913Z,59.0
2022-08-25T10:10:55.521Z,59.0
2022-08-25T10:13:32.942Z,59.0
2022-08-25T10:16:20.704Z,59.0
2022-08-25T10:18:46.776Z,59.0
2022-08-25T10:21:18.039Z,60.0
2022-08-25T10:23:40.896Z,59.0
2022-08-25T10:26:14.669Z,59.0
2022-08-25T10:28:46.738Z,59.0
2022-08-25T10:34:00.669Z,58.0
2022-08-25T10:36:31.966Z,58.0
2022-08-25T10:38:57.888Z,58.0
2022-08-25T10:41:26.836Z,59.0
2022-08-25T10:46:41.440Z,58.0
2022-08-25T10:49:15.675Z,58.0
2022-08-25T10:51:47.625Z,57.0
2022-08-25T10:54:12.401Z,58.0
2022-08-25T10:56:47.174Z,58.0
2022-08-25T10:59:22.113Z,58.0
2022-08-25T11:01:54.697Z,58.0
2022-08-25T11:04:25.999Z,57.0
2022-08-25T11:07:03.208Z,57.0
2022-08-25T11:09:24.453Z,57.0
2022-08-25T11:14:38.789Z,56.0
2022-08-25T11:17:09.659Z,57.0
2022-08-25T11:19:42.895Z,56.0
2022-08-25T11:22:14.574Z,56.0
2022-08-25T11:24:47.676Z,57.0
2022-08-25T11:27:08.268Z,58.0
2022-08-25T11:29:54.980Z,58.0
2022-08-25T11:32:27.445Z,58.0
2022-08-25T11:34:58.666Z,58.0
2022-08-25T11:37:22.613Z,58.0
2022-08-25T11:39:53.399Z,57.0
2022-08-25T11:42:24.131Z,57.0
2022-08-25T11:45:06.447Z,58.0
2022-08-25T11:47:37.077Z,57.0
2022-08-25T11:50:09.499Z,57.0
2022-08-25T11:55:10.311Z,57.0
2022-08-25T11:57:53.869Z,56.0
2022-08-25T12:00:24.742Z,56.0
2022-08-25T12:02:58.433Z,56.0
2022-08-25T12:05:22.462Z,55.0
2022-08-25T12:07:54.315Z,55.0
2022-08-25T12:10:26.299Z,55.0
2022-08-25T12:13:08.077Z,55.0
2022-08-25T12:15:41.139Z,55.0
2022-08-25T12:18:18.937Z,55.0
2022-08-25T12:20:39.559Z,55.0
2022-08-25T12:23:11.555Z,55.0
2022-08-25T12:25:44.116Z,55.0
2022-08-25T12:28:24.697Z,54.0
2022-08-25T12:30:55.971Z,54.0
2022-08-25T12:35:58.459Z,54.0
2022-08-25T12:38:21.729Z,54.0
2022-08-25T12:41:02.341Z,54.0
2022-08-25T12:43:37.417Z,53.0
2022-08-25T12:46:08.852Z,53.0
2022-08-25T12:48:40.138Z,53.0
2022-08-25T12:51:12.987Z,53.0
2022-08-25T12:53:44.235Z,53.0
2022-08-25T12:56:14.855Z,54.0
2022-08-25T12:59:10.606Z,55.0
2022-08-25T13:01:36.216Z,55.0
2022-08-25T13:03:47.428Z,55.0
2022-08-25T13:06:18.440Z,55.0
2022-08-25T13:08:56.899Z,55.0
2022-08-25T13:11:42.269Z,55.0
2022-08-25T13:16:39.148Z,54.0
2022-08-25T13:19:09.880Z,53.0
2022-08-25T13:21:45.195Z,53.0
2022-08-25T13:24:15.349Z,53.0
2022-08-25T13:26:48.720Z,52.0
2022-08-25T13:29:19.886Z,51.0
2022-08-25T13:31:48.444Z,49.0
2022-08-25T13:34:30.402Z,50.0
2022-08-25T13:37:04.257Z,51.0
2022-08-25T13:40:05.150Z,48.0
2022-08-25T13:44:39.376Z,48.0
2022-08-25T13:47:04.283Z,49.0
2022-08-25T13:49:38.504Z,48.0
2022-08-25T13:52:10.234Z,48.0
2022-08-25T13:57:19.726Z,49.0
2022-08-25T13:59:52.805Z,49.0
2022-08-25T14:02:29.872Z,50.0
2022-08-25T14:07:24.699Z,52.0
2022-08-25T14:10:06.126Z,53.0
2022-08-25T14:12:38.028Z,54.0
2022-08-25T14:15:03.811Z,54.0
2022-08-25T14:17:50.224Z,54.0
2022-08-25T14:20:01.346Z,54.0
2022-08-25T14:22:35.085Z,54.0
2022-08-25T14:25:16.841Z,55.0
2022-08-25T14:28:08.025Z,55.0
2022-08-25T14:30:28.666Z,55.0
2022-08-25T14:32:51.783Z,55.0
2022-08-25T14:38:02.872Z,56.0
2022-08-25T14:40:34.507Z,56.0
2022-08-25T14:43:05.625Z,56.0
2022-08-25T14:45:34.385Z,56.0
2022-08-25T14:48:11.672Z,55.0
2022-08-25T14:50:34.583Z,54.0
2022-08-25T14:53:15.964Z,53.0
2022-08-25T14:55:46.592Z,54.0
2022-08-25T14:58:25.712Z,53.0
2022-08-25T15:00:49.225Z,53.0
2022-08-25T15:03:20.746Z,53.0
2022-08-25T15:05:52.283Z,53.0
2022-08-25T15:08:25.978Z,53.0
2022-08-25T15:10:58.658Z,53.0
2022-08-25T15:13:30.674Z,53.0
2022-08-25T15:18:32.998Z,53.0
2022-08-25T15:21:03.692Z,53.0
2022-08-25T15:23:47.246Z,53.0
2022-08-25T15:26:10.293Z,54.0
2022-08-25T15:28:40.948Z,54.0
2022-08-25T15:31:11.595Z,55.0
2022-08-25T15:33:42.977Z,55.0
2022-08-25T15:36:25.603Z,56.0
2022-08-25T15:38:58.974Z,55.0
2022-08-25T15:41:33.268Z,56.0
2022-08-25T15:44:04.015Z,55.0
2022-08-25T15:46:34.740Z,55.0
2022-08-25T15:49:00.256Z,56.0
2022-08-25T15:51:41.489Z,56.0
2022-08-25T15:54:12.136Z,56.0
2022-08-25T15:59:18.005Z,55.0
2022-08-25T16:01:42.991Z,55.0
2022-08-25T16:04:15.026Z,54.0
2022-08-25T16:06:55.829Z,53.0
2022-08-25T16:09:33.232Z,53.0
2022-08-25T16:12:08.750Z,53.0
2022-08-25T16:14:30.286Z,53.0
2022-08-25T16:17:01.723Z,54.0
2022-08-25T16:19:32.308Z,54.0
2022-08-25T16:22:16.772Z,54.0
2022-08-25T16:24:39.701Z,55.0
2022-08-25T16:27:21.218Z,55.0
2022-08-25T16:29:46.172Z,55.0
2022-08-25T16:32:16.789Z,55.0
2022-08-25T16:34:57.787Z,56.0
2022-08-25T16:40:01.879Z,56.0
2022-08-25T16:42:26.050Z,56.0
2022-08-25T16:44:56.743Z,57.0
2022-08-25T16:47:30.535Z,57.0
2022-08-25T16:50:13.289Z,58.0
2022-08-25T16:52:44.275Z,58.0
2022-08-25T16:55:08.613Z,58.0
2022-08-25T16:57:39.231Z,58.0
2022-08-25T17:00:10.752Z,58.0
2022-08-25T17:02:41.341Z,59.0
2022-08-25T17:05:22.029Z,59.0
2022-08-25T17:07:52.601Z,59.0
2022-08-25T17:10:24.737Z,59.0
2022-08-25T17:12:56.264Z,60.0
2022-08-25T17:15:31.570Z,60.0
2022-08-25T17:20:42.420Z,60.0
2022-08-25T17:23:22.462Z,60.0
2022-08-25T17:25:44.467Z,61.0
2022-08-25T17:28:16.037Z,61.0
2022-08-25T17:30:38.233Z,61.0
2022-08-25T17:33:21.131Z,61.0
2022-08-25T17:35:54.639Z,61.0
2022-08-25T17:38:25.798Z,61.0
2022-08-25T17:40:56.855Z,61.0
2022-08-25T17:43:28.773Z,62.0
2022-08-25T17:45:59.824Z,62.0
2022-08-25T17:48:43.673Z,62.0
2022-08-25T17:51:04.609Z,62.0
2022-08-25T17:53:36.854Z,62.0
2022-08-25T17:56:08.568Z,62.0
2022-08-25T18:01:09.317Z,63.0
2022-08-25T18:03:53.123Z,63.0
2022-08-25T18:06:26.182Z,62.0
2022-08-25T18:09:02.562Z,62.0
2022-08-25T18:13:53.492Z,63.0
2022-08-25T18:16:24.427Z,62.0
2022-08-25T18:19:09.539Z,62.0
2022-08-25T18:21:41.043Z,63.0
2022-08-25T18:24:05.852Z,63.0
2022-08-25T18:26:37.079Z,63.0
2022-08-25T18:29:08.188Z,63.0
2022-08-25T18:31:49.096Z,64.0
2022-08-25T18:34:21.074Z,64.0
2022-08-25T18:36:51.836Z,64.0
2022-08-25T18:41:57.308Z,64.0
2022-08-25T18:44:28.033Z,65.0
2022-08-25T18:47:08.670Z,65.0
2022-08-25T18:49:36.951Z,66.0
2022-08-25T18:52:08.208Z,66.0
2022-08-25T18:54:38.836Z,66.0
2022-08-25T18:57:04.085Z,66.0
2022-08-25T18:59:34.671Z,66.0
2022-08-25T19:02:15.805Z,66.0
2022-08-25T19:04:47.140Z,66.0
2022-08-25T19:07:22.143Z,67.0
2022-08-25T19:09:52.859Z,67.0
2022-08-25T19:12:32.660Z,67.0
2022-08-25T19:17:37.881Z,67.0
2022-08-25T19:22:51.410Z,68.0
2022-08-25T19:25:03.146Z,68.0
2022-08-25T19:27:33.865Z,68.0
2022-08-25T19:32:46.067Z,68.0
2022-08-25T19:35:19.399Z,69.0
2022-08-25T19:37:52.377Z,69.0
2022-08-25T19:40:18.296Z,69.0
2022-08-25T19:42:51.395Z,69.0
2022-08-25T19:45:35.319Z,69.0
2022-08-25T19:48:08.110Z,69.0
2022-08-25T19:50:38.780Z,69.0
2022-08-25T19:53:07.092Z,69.0
2022-08-25T19:55:40.292Z,69.0
2022-08-25T19:58:03.353Z,69.0
2022-08-25T20:03:14.219Z,69.0
2022-08-25T20:05:45.407Z,69.0
2022-08-25T20:08:16.923Z,69.0
2022-08-25T20:10:52.282Z,69.0
2022-08-25T20:13:22.857Z,69.0
2022-08-25T20:16:08.072Z,69.0
2022-08-25T20:18:29.675Z,70.0
2022-08-25T20:21:00.640Z,70.0
2022-08-25T20:23:32.970Z,70.0
2022-08-25T20:26:03.578Z,70.0
2022-08-25T20:28:44.178Z,70.0
2022-08-25T20:31:16.442Z,69.0
2022-08-25T20:33:47.082Z,69.0
2022-08-25T20:36:14.243Z,69.0
2022-08-25T20:38:44.846Z,68.0
2022-08-25T20:43:55.513Z,68.0
2022-08-25T20:46:29.090Z,67.0
2022-08-25T20:48:59.848Z,67.0
2022-08-25T20:51:33.705Z,67.0
2022-08-25T20:54:04.299Z,67.0
2022-08-25T20:56:35.924Z,67.0
2022-08-25T20:59:21.794Z,67.0
2022-08-25T21:01:44.305Z,67.0
2022-08-25T21:04:15.200Z,67.0
2022-08-25T21:06:45.774Z,67.0
2022-08-25T21:09:22.646Z,67.0
2022-08-25T21:11:53.500Z,67.0
2022-08-25T21:14:25.635Z,68.0
2022-08-25T21:16:57.456Z,68.0
2022-08-25T21:19:36.844Z,68.0
2022-08-25T21:24:30.694Z,69.0
2022-08-25T21:27:11.298Z,69.0
2022-08-25T21:29:54.801Z,69.0
2022-08-25T21:32:16.693Z,69.0
2022-08-25T21:34:48.889Z,69.0
2022-08-25T21:37:19.473Z,69.0
2022-08-25T21:39:51.546Z,70.0
2022-08-25T21:42:32.607Z,70.0
2022-08-25T21:45:03.607Z,70.0
2022-08-25T21:47:34.209Z,71.0
2022-08-25T21:49:57.001Z,71.0
2022-08-25T21:52:27.970Z,71.0
2022-08-25T21:55:02.700Z,71.0
2022-08-25T21:57:46.952Z,71.0
2022-08-25T22:00:19.178Z,71.0
2022-08-25T22:05:12.021Z,71.0
2022-08-25T22:07:44.587Z,71.0
2022-08-25T22:10:17.576Z,71.0
2022-08-25T22:12:58.653Z,71.0
2022-08-25T22:15:29.419Z,71.0
2022-08-25T22:18:00.073Z,71.0
2022-08-25T22:20:31.404Z,71.0
2022-08-25T22:23:02.058Z,71.0
2022-08-25T22:25:41.603Z,71.0
2022-08-25T22:28:14.403Z,71.0
2022-08-25T22:30:47.726Z,71.0
2022-08-25T22:33:09.108Z,71.0
2022-08-25T22:38:12.248Z,71.0
2022-08-25T22:40:53.367Z,72.0
2022-08-25T22:45:54.617Z,72.0
2022-08-25T22:48:26.003Z,72.0
2022-08-25T22:50:56.988Z,72.0
2022-08-25T22:53:28.577Z,72.0
2022-08-25T22:56:12.660Z,72.0
2022-08-25T22:58:44.218Z,72.0
2022-08-25T23:01:14.014Z,73.0
2022-08-25T23:03:54.282Z,73.0
2022-08-25T23:06:18.738Z,73.0
2022-08-25T23:08:51.016Z,74.0
2022-08-25T23:11:24.053Z,74.0
2022-08-25T23:13:54.684Z,74.0
2022-08-25T23:16:26.016Z,74.0
2022-08-25T23:18:56.870Z,74.0
2022-08-25T23:21:35.247Z,74.0
2022-08-25T23:26:43.887Z,74.0
2022-08-25T23:29:18.203Z,74.0
2022-08-25T23:31:39.955Z,74.0
2022-08-25T23:34:13.028Z,74.0
2022-08-25T23:36:44.148Z,74.0
2022-08-25T23:39:24.785Z,74.0
2022-08-25T23:41:49.944Z,74.0
2022-08-25T23:44:27.310Z,74.0
2022-08-25T23:46:58.047Z,74.0
2022-08-25T23:49:22.465Z,74.0
2022-08-25T23:51:54.035Z,74.0
2022-08-25T23:54:41.677Z,74.0
2022-08-25T23:57:12.278Z,75.0
2022-08-25T23:59:43.226Z,75.0
